Time;durP1;ratioP1;P1;durP2;ratioP2;P2;SDS_P1;SDS_P2;PMS_P1;PMS_P2;Temp;Humidity;BMP_temperature;BMP_pressure;BME280_temperature;BME280_humidity;BME280_pressure;Samples;Min_cycle;Max_cycle;Signal;HPM_P1;HPM_P2
2023/03/26 00:01:22;;;;;;;7.47;1.58;;;;;;;7.98;100.00;100586.75;4910809;29;21192;-84
2023/03/26 00:03:52;;;;;;;3.97;2.10;;;;;;;7.82;100.00;100590.44;4928125;29;20039;-84
2023/03/26 00:06:21;;;;;;;4.65;1.60;;;;;;;7.81;100.00;100586.03;4911605;29;20032;-84
2023/03/26 00:08:47;;;;;;;4.13;1.50;;;;;;;7.79;100.00;100591.16;4932996;29;20079;-84
2023/03/26 00:11:15;;;;;;;7.47;2.13;;;;;;;7.93;100.00;100585.09;4932791;29;20551;-84
2023/03/26 00:13:42;;;;;;;6.10;1.70;;;;;;;7.92;100.00;100583.44;4911179;29;20060;-84
2023/03/26 00:16:13;;;;;;;9.40;2.28;;;;;;;7.86;100.00;100585.75;4914865;29;20548;-83
2023/03/26 00:18:41;;;;;;;5.38;1.83;;;;;;;7.71;100.00;100583.81;4925104;29;20122;-84
2023/03/26 00:21:07;;;;;;;7.30;2.08;;;;;;;7.87;100.00;100587.34;4922775;29;20039;-84
2023/03/26 00:23:34;;;;;;;6.40;1.95;;;;;;;8.03;100.00;100589.25;4925067;29;20174;-84
2023/03/26 00:26:01;;;;;;;10.85;3.72;;;;;;;8.09;100.00;100585.78;4914543;29;20035;-84
2023/03/26 00:28:28;;;;;;;6.78;1.77;;;;;;;7.95;100.00;100593.88;4926805;29;20028;-84
2023/03/26 00:31:01;;;;;;;4.65;2.03;;;;;;;7.84;100.00;100588.09;4927939;29;20402;-84
2023/03/26 00:33:27;;;;;;;9.25;1.60;;;;;;;8.03;100.00;100589.25;4926598;29;20076;-84
2023/03/26 00:35:54;;;;;;;8.95;2.05;;;;;;;7.83;100.00;100592.03;4908239;29;20035;-84
2023/03/26 00:38:24;;;;;;;11.98;2.20;;;;;;;7.92;100.00;100589.81;4926416;29;20035;-84
2023/03/26 00:40:50;;;;;;;8.82;1.90;;;;;;;7.75;100.00;100590.28;4926443;29;20035;-84
2023/03/26 00:43:17;;;;;;;7.00;1.50;;;;;;;7.75;100.00;100584.69;4928347;29;20048;-84
2023/03/26 00:45:45;;;;;;;5.63;1.48;;;;;;;7.90;100.00;100574.66;4926111;29;20474;-84
2023/03/26 00:48:11;;;;;;;6.63;2.10;;;;;;;7.76;100.00;100572.41;4922224;29;20243;-84
2023/03/26 00:50:37;;;;;;;5.82;2.13;;;;;;;7.77;100.00;100570.41;4908553;29;20082;-84
2023/03/26 00:53:02;;;;;;;7.80;2.10;;;;;;;7.98;100.00;100570.03;4902416;29;20039;-84
2023/03/26 00:55:27;;;;;;;6.78;2.00;;;;;;;8.15;100.00;100566.78;4930262;29;20044;-84
2023/03/26 00:57:54;;;;;;;11.60;2.13;;;;;;;7.93;100.00;100566.38;4910658;29;20062;-84
2023/03/26 01:00:28;;;;;;;4.03;1.85;;;;;;;8.16;100.00;100571.19;4927822;29;20505;-84
2023/03/26 01:02:54;;;;;;;8.45;1.95;;;;;;;7.98;100.00;100562.47;4910371;29;20130;-84
2023/03/26 01:05:35;;;;;;;6.78;2.80;;;;;;;8.08;100.00;100552.72;4912384;29;20110;-84
2023/03/26 01:08:16;;;;;;;8.63;2.75;;;;;;;7.82;100.00;100557.00;4926602;29;20038;-84
2023/03/26 01:10:49;;;;;;;4.28;2.25;;;;;;;8.02;100.00;100554.19;4923384;29;20043;-84
2023/03/26 01:13:16;;;;;;;4.03;1.60;;;;;;;7.97;100.00;100546.94;4927270;29;20043;-84
2023/03/26 01:15:43;;;;;;;7.07;2.28;;;;;;;8.13;100.00;100552.41;4908872;29;20038;-84
2023/03/26 01:18:12;;;;;;;7.68;2.00;;;;;;;8.18;100.00;100557.69;4921185;29;20024;-84
2023/03/26 01:20:45;;;;;;;9.40;2.53;;;;;;;8.10;100.00;100550.38;4921731;29;20114;-84
2023/03/26 01:23:14;;;;;;;5.45;1.73;;;;;;;8.17;100.00;100542.13;4921290;29;20036;-84
2023/03/26 01:25:45;;;;;;;7.13;2.08;;;;;;;8.22;100.00;100547.41;4924834;29;20603;-84
2023/03/26 01:28:11;;;;;;;5.65;2.30;;;;;;;8.10;100.00;100547.59;4922988;29;20035;-84
2023/03/26 01:31:08;;;;;;;10.40;2.70;;;;;;;7.90;100.00;100546.78;4926133;29;20027;-84
2023/03/26 01:34:19;;;;;;;7.90;2.42;;;;;;;8.15;100.00;100536.13;4922030;29;20151;-84
2023/03/26 01:36:58;;;;;;;7.35;2.60;;;;;;;8.07;100.00;100531.59;4864284;29;20539;-84
2023/03/26 01:39:37;;;;;;;5.15;2.05;;;;;;;8.22;100.00;100530.69;4865611;29;20029;-85
2023/03/26 01:42:11;;;;;;;8.88;2.60;;;;;;;8.18;100.00;100518.66;4904274;29;20110;-84
2023/03/26 01:44:43;;;;;;;9.52;2.45;;;;;;;8.21;100.00;100526.28;4912846;29;20046;-84
2023/03/26 01:47:10;;;;;;;;;;;;;;;8.20;100.00;100516.31;4920718;29;20485;-84
2023/03/26 01:49:36;;;;;;;6.45;3.80;;;;;;;8.26;100.00;100509.22;4908782;29;19927;-84
2023/03/26 01:52:01;;;;;;;5.75;2.33;;;;;;;8.25;100.00;100513.22;4925109;29;20565;-84
2023/03/26 01:54:30;;;;;;;8.65;2.33;;;;;;;8.33;100.00;100520.53;4921805;29;20631;-84
2023/03/26 01:57:07;;;;;;;8.68;2.50;;;;;;;8.29;100.00;100519.66;4922949;29;20028;-84
2023/03/26 02:00:10;;;;;;;6.10;2.53;;;;;;;8.30;100.00;100512.88;4905859;29;20040;-84
2023/03/26 02:03:07;;;;;;;10.25;2.85;;;;;;;8.05;100.00;100509.66;4924911;29;20470;-84
2023/03/26 02:05:32;;;;;;;6.65;2.40;;;;;;;8.12;100.00;100509.00;4929669;29;20126;-84
2023/03/26 02:08:10;;;;;;;10.35;2.75;;;;;;;8.26;100.00;100500.06;4930298;29;20114;-84
2023/03/26 02:10:41;;;;;;;6.43;2.83;;;;;;;8.29;100.00;100497.34;4926357;29;20047;-84
2023/03/26 02:13:06;;;;;;;6.00;2.08;;;;;;;8.23;100.00;100492.47;4913134;29;20051;-84
2023/03/26 02:15:32;;;;;;;6.90;2.67;;;;;;;8.31;100.00;100483.84;4928235;29;20039;-84
2023/03/26 02:17:58;;;;;;;10.90;2.75;;;;;;;8.05;100.00;100497.69;4909518;29;20034;-84
2023/03/26 02:20:28;;;;;;;10.00;2.58;;;;;;;8.07;100.00;100482.19;4925207;29;20032;-84
2023/03/26 02:22:55;;;;;;;8.60;2.42;;;;;;;8.19;100.00;100481.22;4914036;29;20055;-84
2023/03/26 02:25:21;;;;;;;12.52;3.15;;;;;;;8.28;100.00;100479.00;4930333;29;20363;-84
2023/03/26 02:27:48;;;;;;;8.68;3.38;;;;;;;8.36;100.00;100479.94;4919601;29;20031;-83
2023/03/26 02:30:24;;;;;;;9.55;3.28;;;;;;;8.35;100.00;100479.13;4924319;29;20111;-84
2023/03/26 02:32:51;;;;;;;9.85;4.03;;;;;;;8.32;100.00;100468.69;4908055;29;20083;-84
2023/03/26 02:35:16;;;;;;;11.75;4.30;;;;;;;8.24;100.00;100464.22;4926000;29;20103;-84
2023/03/26 02:37:45;;;;;;;8.35;3.25;;;;;;;8.30;100.00;100471.06;4904309;29;20138;-85
2023/03/26 02:40:11;;;;;;;6.43;3.05;;;;;;;8.35;100.00;100465.19;4919255;29;20034;-84
2023/03/26 02:42:37;;;;;;;12.98;3.80;;;;;;;8.29;100.00;100463.88;4923005;29;20028;-84
2023/03/26 02:45:03;;;;;;;11.65;3.60;;;;;;;8.32;100.00;100463.13;4919744;29;20106;-84
2023/03/26 02:47:30;;;;;;;10.55;4.07;;;;;;;8.27;100.00;100455.09;4922653;29;20035;-84
2023/03/26 02:49:55;;;;;;;6.93;4.43;;;;;;;8.37;100.00;100458.41;4922113;29;20520;-84
2023/03/26 02:52:20;;;;;;;10.65;3.05;;;;;;;8.39;100.00;100462.47;4922883;29;20047;-84
2023/03/26 02:54:46;;;;;;;28.17;5.07;;;;;;;8.30;100.00;100450.75;4907790;29;20062;-84
2023/03/26 02:57:11;;;;;;;9.07;4.28;;;;;;;8.33;100.00;100452.78;4919928;29;20309;-84
2023/03/26 02:59:37;;;;;;;17.30;5.00;;;;;;;8.32;100.00;100449.19;4918570;29;20035;-84
2023/03/26 03:02:03;;;;;;;13.48;4.32;;;;;;;8.32;100.00;100449.19;4921254;29;20070;-84
2023/03/26 03:04:28;;;;;;;10.40;3.47;;;;;;;8.31;100.00;100447.59;4932298;29;20098;-84
2023/03/26 03:06:56;;;;;;;14.10;3.70;;;;;;;8.22;100.00;100441.47;4908810;29;20044;-84
2023/03/26 03:09:23;;;;;;;13.05;4.40;;;;;;;8.16;100.00;100431.81;4926223;29;20036;-85
2023/03/26 03:11:50;;;;;;;13.27;3.90;;;;;;;8.31;100.00;100430.06;4906374;29;20502;-84
2023/03/26 03:14:16;;;;;;;9.20;3.97;;;;;;;8.27;100.00;100426.41;4925378;29;20538;-84
2023/03/26 03:16:41;;;;;;;10.13;4.10;;;;;;;8.26;100.00;100420.00;4917714;29;20045;-85
2023/03/26 03:19:07;;;;;;;8.50;4.30;;;;;;;8.28;100.00;100425.22;4923022;29;20509;-84
2023/03/26 03:21:32;;;;;;;10.93;4.65;;;;;;;8.23;100.00;100425.53;4924251;29;20040;-84
2023/03/26 03:23:57;;;;;;;9.02;4.43;;;;;;;8.20;100.00;100421.53;4925592;29;20325;-84
2023/03/26 03:26:28;;;;;;;9.43;4.28;;;;;;;8.23;100.00;100414.38;4908098;29;20028;-84
2023/03/26 03:28:56;;;;;;;10.30;5.40;;;;;;;8.23;100.00;100411.59;4921736;29;20104;-84
2023/03/26 03:31:23;;;;;;;6.85;3.28;;;;;;;8.23;100.00;100412.41;4926763;29;20040;-84
2023/03/26 03:33:49;;;;;;;17.58;4.75;;;;;;;8.14;100.00;100406.28;4925273;29;20039;-84
2023/03/26 03:36:20;;;;;;;9.30;3.83;;;;;;;8.07;100.00;100400.56;4925011;29;20039;-84
2023/03/26 03:38:46;;;;;;;12.07;3.75;;;;;;;8.15;100.00;100411.47;4924676;29;20163;-84
2023/03/26 03:41:12;;;;;;;8.10;3.85;;;;;;;8.05;100.00;100408.50;4927094;29;20110;-84
2023/03/26 03:43:37;;;;;;;7.28;3.95;;;;;;;8.02;100.00;100410.06;4924469;29;20027;-84
2023/03/26 03:46:02;;;;;;;6.22;2.83;;;;;;;7.99;100.00;100407.19;4922886;29;20031;-84
2023/03/26 03:48:28;;;;;;;11.95;3.50;;;;;;;8.08;100.00;100408.56;4906634;29;20038;-83
2023/03/26 03:50:55;;;;;;;10.02;3.42;;;;;;;8.14;100.00;100417.44;4922546;29;20310;-85
2023/03/26 03:53:24;;;;;;;9.85;3.30;;;;;;;8.06;100.00;100404.56;4903771;29;20099;-84
2023/03/26 03:55:52;;;;;;;9.52;2.90;;;;;;;8.04;100.00;100406.91;4921108;29;20035;-84
2023/03/26 03:58:21;;;;;;;13.32;4.28;;;;;;;8.05;100.00;100400.13;4925143;29;20042;-84
2023/03/26 04:01:01;;;;;;;15.75;4.88;;;;;;;8.09;100.00;100409.38;4906163;29;20035;-84
2023/03/26 04:03:27;;;;;;;6.50;3.35;;;;;;;8.08;100.00;100397.41;4923102;29;20047;-85
2023/03/26 04:05:53;;;;;;;7.22;4.10;;;;;;;8.12;100.00;100408.63;4904398;29;20490;-84
2023/03/26 04:08:23;;;;;;;4.80;2.70;;;;;;;8.08;100.00;100402.19;4911073;29;20039;-84
2023/03/26 04:10:49;;;;;;;9.98;4.07;;;;;;;8.12;100.00;100397.47;4910165;29;20506;-84
2023/03/26 04:13:15;;;;;;;6.10;3.05;;;;;;;8.10;100.00;100399.84;4929646;29;20027;-84
2023/03/26 04:15:42;;;;;;;8.40;3.63;;;;;;;8.10;100.00;100397.06;4924930;29;20071;-84
2023/03/26 04:18:10;;;;;;;9.82;3.70;;;;;;;8.09;100.00;100407.38;4930770;29;20458;-84
2023/03/26 04:20:45;;;;;;;13.05;2.80;;;;;;;8.03;100.00;100408.06;4909123;29;20083;-84
2023/03/26 04:23:14;;;;;;;8.27;2.42;;;;;;;8.03;100.00;100406.09;4926911;29;20107;-84
2023/03/26 04:25:42;;;;;;;10.25;3.45;;;;;;;8.07;100.00;100406.94;4928991;29;20039;-84
2023/03/26 04:28:10;;;;;;;8.80;3.58;;;;;;;7.99;100.00;100401.63;4925321;29;20032;-84
2023/03/26 04:30:37;;;;;;;7.50;3.50;;;;;;;8.11;100.00;100395.84;4908910;29;20489;-85
2023/03/26 04:33:05;;;;;;;8.35;3.17;;;;;;;8.01;100.00;100393.69;4928561;29;20032;-84
2023/03/26 04:35:33;;;;;;;12.70;4.18;;;;;;;8.04;100.00;100390.19;4928282;29;20736;-84
2023/03/26 04:38:05;;;;;;;7.53;3.38;;;;;;;8.08;100.00;100380.69;4910182;29;20058;-85
2023/03/26 04:40:33;;;;;;;12.57;4.30;;;;;;;8.12;100.00;100387.13;4932534;29;20039;-85
2023/03/26 04:43:02;;;;;;;12.35;4.15;;;;;;;8.13;100.00;100387.94;4911935;29;20379;-84
2023/03/26 04:45:30;;;;;;;14.52;4.78;;;;;;;8.08;100.00;100379.91;4907562;29;20058;-84
2023/03/26 04:47:58;;;;;;;12.23;4.10;;;;;;;8.13;100.00;100387.94;4929140;29;20031;-84
2023/03/26 04:50:25;;;;;;;13.90;5.03;;;;;;;8.03;100.00;100383.81;4906019;29;20471;-84
2023/03/26 04:52:53;;;;;;;13.32;4.05;;;;;;;7.89;100.00;100378.78;4925043;29;20066;-84
2023/03/26 04:55:28;;;;;;;10.80;4.50;;;;;;;7.93;100.00;100387.22;4932014;29;20035;-84
2023/03/26 04:57:58;;;;;;;14.07;4.38;;;;;;;8.05;100.00;100381.44;4929395;29;20056;-84
2023/03/26 05:00:25;;;;;;;11.55;4.43;;;;;;;8.01;100.00;100377.81;4912260;29;20122;-84
2023/03/26 05:02:52;;;;;;;13.68;4.38;;;;;;;7.99;100.00;100376.53;4905016;29;20581;-84
2023/03/26 05:05:18;;;;;;;10.98;4.70;;;;;;;7.98;100.00;100375.75;4926613;29;20055;-84
2023/03/26 05:07:44;;;;;;;12.82;3.95;;;;;;;8.04;100.00;100379.03;4907786;29;20130;-85
2023/03/26 05:10:14;;;;;;;17.58;5.75;;;;;;;8.02;100.00;100371.03;4904497;29;20060;-85
2023/03/26 05:12:40;;;;;;;14.13;4.97;;;;;;;8.00;100.00;100372.59;4910133;29;20023;-84
2023/03/26 05:15:06;;;;;;;13.32;4.47;;;;;;;7.89;100.00;100367.63;4908222;29;20541;-84
2023/03/26 05:17:33;;;;;;;10.13;4.32;;;;;;;7.89;100.00;100364.84;4918028;29;20031;-84
2023/03/26 05:20:00;;;;;;;20.48;6.60;;;;;;;7.96;100.00;100366.16;4905407;29;20043;-84
2023/03/26 05:22:25;;;;;;;11.02;4.85;;;;;;;7.98;100.00;100367.38;4918441;29;20477;-85
2023/03/26 05:24:51;;;;;;;11.18;3.38;;;;;;;7.94;100.00;100360.94;4926329;29;20031;-84
2023/03/26 05:27:19;;;;;;;14.13;5.25;;;;;;;7.86;100.00;100357.25;4923486;29;20031;-84
2023/03/26 05:29:45;;;;;;;13.77;4.10;;;;;;;7.83;100.00;100357.97;4909058;29;20423;-84
2023/03/26 05:32:10;;;;;;;13.00;4.78;;;;;;;7.90;100.00;100360.06;4921253;29;20649;-84
2023/03/26 05:34:37;;;;;;;10.98;4.07;;;;;;;7.92;100.00;100361.31;4923809;29;20451;-84
2023/03/26 05:37:03;;;;;;;7.57;4.03;;;;;;;7.98;100.00;100347.88;4914964;29;20627;-85
2023/03/26 05:39:29;;;;;;;16.30;5.07;;;;;;;8.00;100.00;100353.09;4920310;29;20067;-84
2023/03/26 05:41:54;;;;;;;13.40;4.65;;;;;;;7.97;100.00;100351.84;4917137;29;20383;-84
2023/03/26 05:44:20;;;;;;;11.50;4.97;;;;;;;8.00;100.00;100351.09;4923903;29;20038;-85
2023/03/26 05:46:45;;;;;;;8.85;5.03;;;;;;;7.89;100.00;100345.34;4923242;29;20031;-84
2023/03/26 05:49:11;;;;;;;14.50;4.68;;;;;;;7.90;100.00;100346.94;4925275;29;20047;-85
2023/03/26 05:51:36;;;;;;;8.52;5.05;;;;;;;7.88;100.00;100343.72;4922041;29;20094;-85
2023/03/26 05:54:01;;;;;;;11.75;4.93;;;;;;;7.92;100.00;100344.59;4908353;29;20115;-85
2023/03/26 05:56:27;;;;;;;8.55;4.57;;;;;;;7.93;100.00;100337.84;4912937;29;20027;-84
2023/03/26 05:58:55;;;;;;;14.57;7.18;;;;;;;7.97;100.00;100339.88;4913619;29;20027;-84
2023/03/26 06:01:21;;;;;;;12.55;4.43;;;;;;;8.00;100.00;100339.16;4923287;29;20510;-84
2023/03/26 06:03:47;;;;;;;12.88;5.88;;;;;;;8.05;100.00;100336.84;4923884;29;20408;-84
2023/03/26 06:06:17;;;;;;;17.90;5.95;;;;;;;8.04;100.00;100329.66;4921379;29;20118;-84
2023/03/26 06:08:49;;;;;;;17.83;5.85;;;;;;;8.10;100.00;100327.38;4927518;29;20039;-84
2023/03/26 06:11:15;;;;;;;16.13;5.82;;;;;;;7.96;100.00;100314.00;4927840;29;20034;-84
2023/03/26 06:13:42;;;;;;;16.98;5.75;;;;;;;8.06;100.00;100310.56;4928176;29;21681;-85
2023/03/26 06:16:08;;;;;;;13.75;4.68;;;;;;;8.10;100.00;100305.06;4920457;29;20115;-84
2023/03/26 06:18:35;;;;;;;16.75;5.90;;;;;;;8.04;100.00;100318.50;4930188;29;20051;-85
2023/03/26 06:21:00;;;;;;;17.38;6.53;;;;;;;7.96;100.00;100316.00;4908220;29;20059;-84
2023/03/26 06:23:25;;;;;;;18.65;6.00;;;;;;;8.01;100.00;100315.66;4910492;29;20024;-84
2023/03/26 06:25:51;;;;;;;16.40;7.40;;;;;;;7.90;100.00;100307.13;4913883;29;20062;-84
2023/03/26 06:28:16;;;;;;;16.90;6.03;;;;;;;8.10;100.00;100299.50;4910685;29;20028;-85
2023/03/26 06:30:42;;;;;;;19.60;6.43;;;;;;;8.21;100.00;100313.59;4930729;29;20028;-85
2023/03/26 06:33:08;;;;;;;14.52;7.05;;;;;;;8.24;100.00;100319.22;4926842;29;20423;-85
2023/03/26 06:35:33;;;;;;;17.38;6.70;;;;;;;8.15;100.00;100310.31;4936269;29;20118;-85
2023/03/26 06:37:59;;;;;;;15.93;7.30;;;;;;;8.23;100.00;100314.81;4910702;29;20071;-84
2023/03/26 06:40:24;;;;;;;14.98;7.30;;;;;;;8.19;100.00;100307.59;4927942;29;20075;-84
2023/03/26 06:42:50;;;;;;;17.02;7.07;;;;;;;8.14;100.00;100303.13;4927905;29;20402;-84
2023/03/26 06:45:16;;;;;;;16.45;7.80;;;;;;;8.23;100.00;100303.66;4928504;29;20079;-84
2023/03/26 06:47:42;;;;;;;16.85;6.90;;;;;;;8.15;100.00;100301.94;4926861;29;20028;-84
2023/03/26 06:50:10;;;;;;;21.35;8.90;;;;;;;8.02;100.00;100297.78;4912982;29;20051;-84
2023/03/26 06:52:35;;;;;;;16.92;7.28;;;;;;;8.08;100.00;100302.66;4908133;29;20509;-85
2023/03/26 06:55:01;;;;;;;22.95;9.57;;;;;;;7.99;100.00;100284.56;4908260;29;20027;-85
2023/03/26 06:57:26;;;;;;;21.15;8.93;;;;;;;7.84;100.00;100291.91;4926004;29;20122;-84
2023/03/26 06:59:52;;;;;;;16.35;7.30;;;;;;;7.89;100.00;100283.25;4930405;29;20462;-84
2023/03/26 07:02:17;;;;;;;13.93;6.95;;;;;;;8.04;100.00;100285.06;4927764;29;20070;-85
2023/03/26 07:04:42;;;;;;;14.55;6.95;;;;;;;7.93;100.00;100278.53;4917911;29;20084;-84
2023/03/26 07:07:08;;;;;;;29.10;7.97;;;;;;;7.77;100.00;100287.03;4916759;29;20222;-84
2023/03/26 07:09:33;;;;;;;21.10;7.00;;;;;;;8.05;100.00;100280.28;4923489;29;20043;-84
2023/03/26 07:11:59;;;;;;;12.45;6.78;;;;;;;7.81;100.00;100278.72;4910244;29;20035;-84
2023/03/26 07:14:26;;;;;;;19.13;6.20;;;;;;;7.70;100.00;100276.56;4930651;29;20485;-85
2023/03/26 07:16:52;;;;;;;11.93;5.13;;;;;;;7.70;100.00;100273.78;4912627;29;20031;-84
2023/03/26 07:19:17;;;;;;;13.80;5.30;;;;;;;7.89;100.00;100269.31;4929666;29;20481;-84
2023/03/26 07:21:43;;;;;;;17.08;6.30;;;;;;;7.88;100.00;100268.47;4904226;29;20123;-84
2023/03/26 07:24:12;;;;;;;18.40;6.30;;;;;;;7.92;100.00;100268.56;4930430;29;20024;-84
2023/03/26 07:26:54;;;;;;;16.08;7.00;;;;;;;7.97;100.00;100270.19;4928801;29;20028;-84
2023/03/26 07:29:36;;;;;;;15.10;6.75;;;;;;;7.89;100.00;100270.09;4924838;29;20067;-84
2023/03/26 07:32:32;;;;;;;18.35;6.68;;;;;;;7.90;100.00;100270.91;4926071;29;20066;-84
2023/03/26 07:35:16;;;;;;;13.60;6.10;;;;;;;8.01;100.00;100268.28;4919561;29;20151;-84
2023/03/26 07:38:19;;;;;;;11.27;5.40;;;;;;;8.13;100.00;100273.63;4921736;29;20106;-85
2023/03/26 07:40:52;;;;;;;20.65;7.13;;;;;;;7.91;100.00;100267.75;4861517;29;20109;-84
2023/03/26 07:43:27;;;;;;;19.27;6.18;;;;;;;7.96;100.00;100274.19;4845377;29;20055;-84
2023/03/26 07:45:53;;;;;;;21.20;5.65;;;;;;;8.09;100.00;100275.56;4892508;29;20047;-84
2023/03/26 07:48:25;;;;;;;12.55;4.63;;;;;;;8.21;100.00;100272.56;4920391;29;20086;-83
2023/03/26 07:50:52;;;;;;;14.38;4.53;;;;;;;8.20;100.00;100270.16;4917191;29;20409;-83
2023/03/26 07:53:18;;;;;;;17.10;4.65;;;;;;;8.37;100.00;100274.34;4920156;29;20028;-83
2023/03/26 07:55:56;;;;;;;13.60;5.13;;;;;;;8.48;100.00;100275.34;4928880;29;20500;-83
2023/03/26 07:58:54;;;;;;;25.00;6.22;;;;;;;8.48;100.00;100275.34;4928412;29;20066;-83
2023/03/26 08:01:34;;;;;;;13.07;3.88;;;;;;;8.39;100.00;100264.47;4902138;29;20046;-83
2023/03/26 08:04:06;;;;;;;16.92;5.00;;;;;;;8.47;100.00;100277.31;4928370;29;20485;-83
2023/03/26 08:06:36;;;;;;;15.48;4.53;;;;;;;8.55;100.00;100275.44;4928938;29;20042;-83
2023/03/26 08:09:10;;;;;;;15.25;4.32;;;;;;;8.46;100.00;100283.28;4913877;29;20040;-84
2023/03/26 08:12:03;;;;;;;11.07;4.20;;;;;;;8.54;100.00;100274.63;4915027;29;20917;-83
2023/03/26 08:14:46;;;;;;;13.50;4.35;;;;;;;8.54;100.00;100274.63;4890247;29;20065;-83
2023/03/26 08:17:11;;;;;;;;;;;;;;;8.60;100.00;100279.88;4901278;29;20038;-83
2023/03/26 08:19:52;;;;;;;15.80;4.18;;;;;;;8.51;100.00;100285.75;4915680;29;19914;-83
2023/03/26 08:22:40;;;;;;;21.48;5.22;;;;;;;8.48;100.00;100278.16;4905942;29;20501;-83
2023/03/26 08:25:32;;;;;;;20.73;4.40;;;;;;;8.65;100.00;100280.34;4912082;29;20740;-83
2023/03/26 08:28:12;;;;;;;23.70;4.18;;;;;;;8.42;100.00;100293.59;4908780;29;20036;-83
2023/03/26 08:30:38;;;;;;;21.77;4.13;;;;;;;8.43;100.00;100284.03;4899695;29;20164;-83
2023/03/26 08:33:25;;;;;;;8.90;3.50;;;;;;;8.55;100.00;100286.59;4927777;29;20499;-83
2023/03/26 08:35:51;;;;;;;19.58;3.45;;;;;;;8.43;100.00;100281.25;4931492;29;20119;-83
2023/03/26 08:38:18;;;;;;;19.52;3.47;;;;;;;8.50;100.00;100289.72;4909935;29;20478;-83
2023/03/26 08:41:11;;;;;;;16.17;3.97;;;;;;;8.68;100.00;100290.75;4930655;29;20060;-83
2023/03/26 08:43:49;;;;;;;16.95;4.75;;;;;;;8.63;100.00;100281.91;4921435;29;20110;-83
2023/03/26 08:46:29;;;;;;;15.95;3.88;;;;;;;8.53;100.00;100284.19;4927647;29;20035;-84
2023/03/26 08:49:27;;;;;;;15.30;3.35;;;;;;;8.58;100.00;100283.06;4925462;29;20341;-84
2023/03/26 08:52:38;;;;;;;19.38;4.03;;;;;;;8.60;100.00;100275.13;4921536;29;20133;-83
2023/03/26 08:55:31;;;;;;;20.52;4.90;;;;;;;8.58;100.00;100285.84;4904273;29;20147;-82
2023/03/26 08:57:56;;;;;;;18.95;3.70;;;;;;;8.51;100.00;100277.38;4939082;29;20035;-82
2023/03/26 09:00:37;;;;;;;19.85;4.28;;;;;;;8.52;100.00;100282.59;4927488;29;20044;-82
2023/03/26 09:03:22;;;;;;;19.38;4.00;;;;;;;8.70;100.00;100282.00;4921589;29;20046;-82
2023/03/26 09:06:09;;;;;;;15.68;3.67;;;;;;;8.70;100.00;100280.00;4928997;29;20031;-82
2023/03/26 09:08:56;;;;;;;19.98;5.13;;;;;;;8.82;100.00;100283.75;4928613;29;20028;-82
2023/03/26 09:11:48;;;;;;;22.67;3.83;;;;;;;8.66;100.00;100279.16;4917519;29;20039;-83
2023/03/26 09:14:19;;;;;;;21.88;4.32;;;;;;;8.68;100.00;100289.94;4904446;29;20028;-84
2023/03/26 09:17:14;;;;;;;16.35;3.40;;;;;;;8.58;100.00;100280.28;4929260;29;20032;-84
2023/03/26 09:19:52;;;;;;;23.42;3.95;;;;;;;8.37;100.00;100279.94;4932425;29;20031;-84
2023/03/26 09:22:43;;;;;;;18.50;3.80;;;;;;;8.46;100.00;100278.50;4894468;29;20506;-83
2023/03/26 09:25:38;;;;;;;14.82;4.32;;;;;;;8.49;100.00;100285.31;4925615;29;20078;-83
2023/03/26 09:28:32;;;;;;;16.30;4.30;;;;;;;8.29;100.00;100282.63;4926030;29;20024;-83
2023/03/26 09:31:04;;;;;;;16.67;3.97;;;;;;;8.32;100.00;100276.28;4856732;29;20115;-83
2023/03/26 09:34:03;;;;;;;17.13;3.75;;;;;;;8.41;100.00;100290.00;4919636;29;20127;-83
2023/03/26 09:36:51;;;;;;;19.98;4.43;;;;;;;8.34;100.00;100284.28;4919035;29;20083;-84
2023/03/26 09:39:58;;;;;;;20.75;6.57;;;;;;;8.54;100.00;100285.81;4923763;29;20024;-84
2023/03/26 09:42:36;;;;;;;13.25;4.32;;;;;;;8.48;100.00;100281.72;4926530;29;20509;-83
2023/03/26 09:45:22;;;;;;;25.45;5.80;;;;;;;8.44;100.00;100285.66;4925496;29;20027;-83
2023/03/26 09:48:04;;;;;;;23.48;4.97;;;;;;;8.44;100.00;100282.88;4906845;29;20054;-83
2023/03/26 09:50:51;;;;;;;19.10;4.10;;;;;;;8.51;100.00;100291.31;4926787;29;20047;-84
2023/03/26 09:53:38;;;;;;;19.27;4.75;;;;;;;8.43;100.00;100295.19;4893909;29;20453;-84
2023/03/26 09:56:31;;;;;;;22.58;5.40;;;;;;;8.25;100.00;100281.00;4920938;29;20065;-84
2023/03/26 09:59:05;;;;;;;15.13;5.00;;;;;;;8.50;100.00;100296.09;4910683;29;20050;-84
2023/03/26 10:02:07;;;;;;;14.93;3.30;;;;;;;8.54;100.00;100290.59;4915495;29;20039;-85
2023/03/26 10:04:50;;;;;;;13.20;4.50;;;;;;;8.53;100.00;100284.19;4899013;29;20422;-84
2023/03/26 10:07:39;;;;;;;22.20;3.78;;;;;;;8.44;100.00;100296.81;4920092;29;20032;-84
2023/03/26 10:10:17;;;;;;;14.82;3.60;;;;;;;8.47;100.00;100301.63;4901006;29;20087;-84
2023/03/26 10:12:49;;;;;;;19.33;4.55;;;;;;;8.55;100.00;100308.91;4908622;29;20028;-84
2023/03/26 10:15:30;;;;;;;18.83;5.05;;;;;;;8.67;100.00;100296.72;4897041;29;20052;-85
2023/03/26 10:18:17;;;;;;;35.80;5.60;;;;;;;8.82;100.00;100306.06;4900783;29;20032;-84
2023/03/26 10:21:03;;;;;;;18.15;4.47;;;;;;;8.61;100.00;100304.59;4900767;29;20028;-84
2023/03/26 10:23:55;;;;;;;14.93;3.72;;;;;;;8.64;100.00;100309.41;4910295;29;20023;-84
2023/03/26 10:26:59;;;;;;;16.80;3.63;;;;;;;8.79;100.00;100316.00;4912118;29;20039;-82
2023/03/26 10:29:44;;;;;;;18.23;4.57;;;;;;;8.89;100.00;100314.53;4903803;29;20410;-84
2023/03/26 10:32:29;;;;;;;25.00;6.40;;;;;;;8.98;100.00;100317.00;4930519;29;20028;-84
2023/03/26 10:35:24;;;;;;;21.90;5.05;;;;;;;8.94;100.00;100309.41;4926990;29;20078;-85
2023/03/26 10:38:09;;;;;;;18.50;3.45;;;;;;;8.70;100.00;100319.06;4929529;29;20368;-84
2023/03/26 10:40:46;;;;;;;16.85;4.85;;;;;;;8.63;100.00;100319.00;4909228;29;20046;-85
2023/03/26 10:43:39;;;;;;;18.15;4.03;;;;;;;8.80;100.00;100319.59;4917077;29;20434;-84
2023/03/26 10:46:24;;;;;;;;;;;;;;;8.87;100.00;100322.47;4908427;29;20036;-85
2023/03/26 10:49:18;;;;;;;23.00;3.83;;;;;;;8.82;100.00;100320.03;4928349;29;19970;-85
2023/03/26 10:51:52;;;;;;;13.05;2.92;;;;;;;8.75;100.00;100318.75;4926994;29;20040;-85
2023/03/26 10:54:51;;;;;;;19.95;4.45;;;;;;;8.78;100.00;100322.75;4926246;29;20043;-85
2023/03/26 10:57:37;;;;;;;18.05;4.38;;;;;;;8.80;100.00;100323.19;4910965;29;20039;-85
2023/03/26 11:00:35;;;;;;;12.32;3.67;;;;;;;9.00;100.00;100321.03;4927702;29;20386;-85
2023/03/26 11:03:17;;;;;;;18.98;3.33;;;;;;;8.99;100.00;100325.00;4901862;29;20047;-85
2023/03/26 11:06:03;;;;;;;17.42;3.28;;;;;;;9.03;100.00;100327.84;4930076;29;20028;-86
2023/03/26 11:08:47;;;;;;;16.25;3.67;;;;;;;9.27;100.00;100316.13;4927195;29;20513;-85
2023/03/26 11:11:29;;;;;;;13.90;3.35;;;;;;;9.32;100.00;100328.97;4928600;29;20091;-85
2023/03/26 11:14:20;;;;;;;18.90;3.13;;;;;;;9.19;98.10;100319.25;4927703;29;20158;-85
2023/03/26 11:17:06;;;;;;;9.75;2.80;;;;;;;9.25;100.00;100323.31;4912142;29;20034;-85
2023/03/26 11:19:55;;;;;;;13.10;3.55;;;;;;;9.26;97.43;100320.13;4931936;29;20504;-84
2023/03/26 11:22:20;;;;;;;24.00;3.67;;;;;;;9.44;98.13;100331.47;4924004;29;20485;-85
2023/03/26 11:24:58;;;;;;;17.85;5.28;;;;;;;9.53;100.00;100318.03;4911151;29;20145;-84
2023/03/26 11:27:39;;;;;;;11.57;2.58;;;;;;;9.41;96.92;100332.25;4931401;29;20028;-84
2023/03/26 11:30:21;;;;;;;18.77;3.53;;;;;;;9.09;95.22;100331.91;4913577;29;20032;-84
2023/03/26 11:32:51;;;;;;;19.25;4.07;;;;;;;9.19;97.91;100336.78;4926775;29;20023;-84
2023/03/26 11:35:26;;;;;;;14.38;3.13;;;;;;;9.20;96.34;100329.25;4913931;29;20028;-84
2023/03/26 11:37:57;;;;;;;18.02;3.97;;;;;;;9.24;96.45;100336.47;4912731;29;20032;-84
2023/03/26 11:40:30;;;;;;;20.58;5.43;;;;;;;9.27;94.31;100326.53;4914867;29;20368;-84
2023/03/26 11:43:01;;;;;;;15.95;3.40;;;;;;;9.33;97.18;100331.38;4908042;29;20078;-84
2023/03/26 11:45:30;;;;;;;23.25;3.92;;;;;;;9.18;95.71;100331.63;4913616;29;20081;-84
2023/03/26 11:48:02;;;;;;;12.10;3.10;;;;;;;9.25;96.13;100334.47;4928548;29;20114;-84
2023/03/26 11:50:33;;;;;;;7.60;2.30;;;;;;;9.14;93.12;100329.56;4921142;29;20039;-84